Share

Bishop, VA (24604)

Parkview Heights (KVABLUEF4) Elev 2533 ft | 37.24 °N, 81.28 °W | Change Station

Current weather conditions updated 4 seconds ago

Clear
Clear
59.0 °F
Feels Like 59.0 °F
N
6.0
Wind Variable Wind from East
Gusts 10.0 mph
Sunrise 6:49 AM
Sunset 8:03 PM
Moon Waning Gibbous

Tomorrow is forecast to be Warmer than today.

Pressure 30.33 in
Visibility 10.0 miles
Clouds Clear
Dew Point 28 °F
Humidity 31%
Rainfall 0.00 in
Snow Depth Not available.
UV 2.2 out of 16
Pollen 9.60 out of 12
Air Quality Not available.
Flu Activity Local Activity
METAR KJFZ 172115Z AUTO 13009G15KT 10SM CLR 18/M05 A3033 RMK AO2 T01761049

More Conditions Fewer Conditions

Pressure 30.33 in
Visibility 10.0 miles
Clouds Clear
Dew Point 28 °F
Humidity 31%
Rainfall 0.00 in
Snow Depth Not available.
UV 2.2 out of 16
Pollen 9.60 out of 12
Air Quality Not available.
Flu Activity Local Activity
METAR KJFZ 172115Z AUTO 13009G15KT 10SM CLR 18/M05 A3033 RMK AO2 T01761049

More Conditions Fewer Conditions

10-Day Forecast

Almanac

Astronomy

Apr. 17, 2014 Rise Set
Actual Time 6:49 AM EDT 8:03 PM EDT
Civil Twilight 6:22 AM EDT 8:30 PM EDT
Nautical Twilight 5:49 AM EDT 9:02 PM EDT
Astronomical Twilight 5:16 AM EDT 9:36 PM EDT
Moon 10:44 PM EDT 8:22 AM EDT
Length of Visible Light 14h 08m
Length of Day
13h 14m
Tomorrow will be 2m 14s longer.
Waning Gibbous, 92% of the Moon is Illuminated
Today
Waning Gibbous
Apr 22
Last Quarter
Apr 29
New
May 6
First Quarter
May 14
Full

Today's Extremes

State Highs State Lows

Community

  • Morning Light
    Morning Light
  • New Day
    New Day
  • Lake Michigan Sunrise
    Lake Michigan Sunrise
  • sunset from izmir, narlıdere
    sunset from izmir, narlıdere
  • oregon cherry
    oregon cherry

WunderPhotos

Upload Photos

1,702,134 photos uploaded!

Nearby

Snow Depth

Station Depth Elevation
No new snow has been reported.

Coastal Water Temperatures

Place Temperature
No Stations Reporting

Earthquake Activity

City Distance Mag. Time & Date
No recent earthquake activity has been reported nearby.
Minimum magnitude displayed is 2.5.

Nearby Weather Stations

Station Location Temp. Dew Point Humidity Wind Precip. Elev Updated Type
RAWS BERWIND WV, Berwind, WV 69 °F 22 °F 17% North  at  5 mph 0.00 in / hr 1654 ft 4:17 PM EDT MADIS
Parkview Heights, Bluefield, VA 59.0 °F 28 °F 31% East  at  6.0 mph 0.00 in / hr 2533 ft 5:20 PM EDT Rapid Fire
South Bluefield, Bluefield, WV 60.1 °F 27 °F 28% SSW  at  5.0 mph 0.00 in / hr 2530 ft 5:20 PM EDT Rapid Fire
MesoWest T54A Tazewell , Burkes Garden, VA 56 °F 24 °F 29% East  at  9 mph 0.00 in / hr 2794 ft 3:20 PM EDT MADIS
185 Beeson rd, Lashmeet, WV 59.1 °F 32 °F 35% SW  at  9.0 mph 0.00 in / hr 2589 ft 5:20 PM EDT Rapid Fire

Show More Stations Show Fewer Stations

What do you think?

We're not finished. Please let us know what you like, what you don't like, and what you are still missing.